Stunt Ranch Reserve, Santa Monica Mtns, California Weather observations

Data are for 10 minute period ending at time listed.
 Day   Time   Solar   Ave.   Ave.  Ave.  Vector  Max.   Baro.   Total    
  of    of     Rad.   Air    Rel.  Wind   Wind   Wind  Press.  Precip.   
Year   Day            Temp.  Hum.  Speed  Dir.   Gust                    
2014   (PST)  Kw/m2    F      %     mph   deg.    mph    mb.     in.     
-------------------------------------------------------------------------
 328   18:10   0.00   67.0    12    3.9   146    12.6   977.7    0.00 
 328   18:20   0.00   66.0    12    3.6   200     9.3   978.0    0.00 
 328   18:30   0.00   66.8    12    4.2   175    13.2   978.0    0.00 
 328   18:40   0.00   66.8    12    5.5   176    13.2   978.3    0.00 
 328   18:50   0.00   66.7    12    5.7   149    12.1   978.3    0.00 
 328   19:00   0.00   66.5    12    7.8   139    14.5   978.7    0.00 
 328   19:10   0.00   66.7    11    5.3   103    12.6   978.7    0.00 
 328   19:20   0.00   65.7    12    2.7    96     6.5   979.0    0.00 
 328   19:30   0.00   66.1    12    4.2   110    11.0   979.0    0.00 
 328   19:40   0.00   65.9    12    4.1   107    12.2   979.0    0.00 
 328   19:50   0.00   66.0    12    5.0   136    12.6   979.0    0.00 
 328   20:00   0.00   66.3    11    6.8   111    13.9   979.0    0.00 
 328   20:10   0.00   66.2    11    7.6   104    17.9   979.0    0.00 
 328   20:20   0.00   66.1    11    7.3   117    13.2   979.3    0.00 
 328   20:30   0.00   65.7    12    7.4    96    14.3   979.3    0.00 
 328   20:40   0.00   65.6    12    4.8    94    10.7   979.3    0.00 
 328   20:50   0.00   65.5    12    7.5   126    14.8   979.7    0.00 
 328   21:00   0.00   65.9    11    8.8   117    14.6   979.7    0.00 
 328   21:10   0.00   66.1    11    5.4    94    12.7   979.7    0.00 
 328   21:20   0.00   65.3    12    2.6   264     4.5   979.7    0.00 
 328   21:30   0.00   64.8    12    1.6   275     5.8   980.0    0.00 
 328   21:40   0.00   64.4    12    0.7   142     2.3   980.0    0.00 
 328   21:50   0.00   64.2    12    3.2   159     6.7   980.0    0.00 
 328   22:00   0.00   63.5    12    4.0   128     8.0   980.0    0.00 
 328   22:10   0.00   64.3    12    2.2   118     4.9   980.0    0.00 
 328   22:20   0.00   63.8    12    4.1   139     7.7   980.0    0.00 
 328   22:30   0.00   64.0    12    2.6   143     8.4   980.0    0.00 
 328   22:40   0.00   64.7    11    4.6   101    11.2   980.0    0.00 
 328   22:50   0.00   63.8    12    2.8   159     8.2   980.4    0.00 
 328   23:00   0.00   63.9    11    1.1   182     2.8   980.4    0.00 
 328   23:10   0.00   63.2    12    2.6   159     5.6   980.4    0.00 
 328   23:20   0.00   62.6    12    3.3   166     6.2   980.4    0.00 
 328   23:30   0.00   62.7    11    4.6   131     6.9   980.4    0.00 
 328   23:40   0.00   62.7    11    3.9   148     5.8   980.4    0.00 
 328   23:50   0.00   61.5    12    4.2   167     6.7   980.4    0.00 
 329    0:00   0.00   60.4    12    4.9   154     8.1   980.4    0.00 
 329    0:10   0.00   61.2    12    4.9   152     7.8   980.4    0.00 
 329    0:20   0.00   61.9    11    3.9   154     7.2   980.4    0.00 
 329    0:30   0.00   61.3    12    4.9   153     7.7   980.4    0.00 
 329    0:40   0.00   61.1    12    3.7   165     5.8   980.4    0.00 
 329    0:50   0.00   59.9    12    4.4   161     6.9   980.4    0.00 
 329    1:00   0.00   60.5    12    4.3   154     7.2   980.4    0.00 
 329    1:10   0.00   61.2    12    4.8   152     8.2   980.4    0.00 
 329    1:20   0.00   61.0    12    3.9   167     6.5   980.7    0.00 
 329    1:30   0.00   60.7    12    3.7   160     5.8   980.7    0.00 
 329    1:40   0.00   58.8    13    3.0   157     5.2   980.7    0.00 
 329    1:50   0.00   57.7    14    3.7   152     5.9   980.7    0.00 
 329    2:00   0.00   59.2    13    4.4   155     6.7   980.7    0.00 
 329    2:10   0.00   59.5    13    3.5   159     5.6   980.7    0.00 
 329    2:20   0.00   59.9    12    3.6   154     5.8   980.7    0.00 
 329    2:30   0.00   60.0    12    1.9   143     4.7   980.7    0.00 
 329    2:40   0.00   59.3    13    1.6   156     3.4   980.7    0.00 
 329    2:50   0.00   58.7    13    1.5   135     4.3   980.7    0.00 
 329    3:00   0.00   58.1    14    1.6   168     6.0   980.7    0.00 
 329    3:10   0.00   58.0    14    2.6   154     6.1   980.7    0.00 
 329    3:20   0.00   58.9    13    1.8   155     3.4   980.7    0.00 
 329    3:30   0.00   59.3    13    4.3   135     7.4   980.7    0.00 
 329    3:40   0.00   60.4    12    4.9   141     8.9   980.7    0.00 
 329    3:50   0.00   60.9    12    3.5   150     6.6   980.7    0.00 
 329    4:00   0.00   60.9    13    2.3   152     6.3   980.7    0.00 
 329    4:10   0.00   60.7    13    3.0   156     6.0   980.7    0.00 
 329    4:20   0.00   60.0    14    1.3   227     4.0   980.7    0.00 
 329    4:30   0.00   58.0    15    0.7   322     1.9   981.0    0.00 
 329    4:40   0.00   56.1    16    0.8   148     2.3   981.0    0.00 
 329    4:50   0.00   55.2    17    1.0    96     2.9   981.0    0.00 
 329    5:00   0.00   55.2    16    1.8   104     4.5   980.7    0.00 
 329    5:10   0.00   55.4    16    1.4   102     3.4   980.7    0.00 
 329    5:20   0.00   55.7    16    2.2   111     4.0   981.0    0.00 
 329    5:30   0.00   55.3    16    0.8   325     2.4   981.0    0.00 
 329    5:40   0.00   55.8    16    0.6   289     2.1   981.0    0.00 
 329    5:50   0.00   54.6    17    1.2   132     3.7   981.4    0.00 
 329    6:00   0.00   55.2    16    1.0   251     2.8   981.4    0.00 
 329    6:10   0.00   55.5    16    1.0   190     2.5   981.4    0.00 
 329    6:20   0.00   55.2    16    2.0    83     4.1   981.4    0.00 
 329    6:30   0.00   55.0    16    1.8   134     4.0   981.4    0.00 
 329    6:40   0.00   57.2    14    1.0   158     2.1   981.4    0.00 
 329    6:50   0.01   57.4    14    0.8   235     2.2   981.7    0.00 
 329    7:00   0.01   56.7    15    1.1   313     1.6   981.7    0.00 
 329    7:10   0.01   56.6    14    1.1   138     2.7   981.7    0.00 
 329    7:20   0.01   57.6    14    1.3   159     2.8   981.7    0.00 
 329    7:30   0.01   58.0    14    1.0   223     2.4   982.1    0.00 
 329    7:40   0.01   58.2    14    0.4   272     1.2   982.1    0.00 
 329    7:50   0.04   58.4    14    0.1   210     0.9   982.1    0.00 
 329    8:00   0.16   60.4    15    0.8   147     1.7   982.4    0.00 
 329    8:10   0.19   63.7    15    1.2   133     1.8   982.4    0.00 
 329    8:20   0.21   65.6    13    1.2   130     2.2   982.7    0.00 
 329    8:30   0.24   68.0    13    0.9   101     1.5   982.7    0.00 
 329    8:40   0.26   68.3    11    0.9   116     1.8   982.7    0.00 
 329    8:50   0.28   71.1    10    0.5   289     1.6   982.7    0.00 
 329    9:00   0.30   70.5    10    0.6   336     1.6   982.7    0.00 
 329    9:10   0.33   71.7     9    0.1   288     1.7   982.4    0.00 
 329    9:20   0.35   73.6     8    0.3   277     1.5   982.4    0.00 
 329    9:30   0.37   72.4     9    1.1   280     1.8   982.4    0.00 
 329    9:40   0.39   72.1     9    0.7   306     1.8   982.4    0.00 
 329    9:50   0.40   71.7     9    1.7   283     2.9   982.1    0.00 
 329   10:00   0.42   73.5     9    1.8   283     2.5   982.1    0.00 
 329   10:10   0.43   75.1     9    1.2   281     1.7   982.1    0.00 
 329   10:20   0.45   75.6     9    1.3   276     2.5   982.1    0.00 
 329   10:30   0.46   75.4     8    1.5   283     2.9   981.7    0.00 
 329   10:40   0.47   76.3     8    1.5   275     2.7   981.4    0.00 
 329   10:50   0.48   77.0     8    2.2   274     4.0   981.4    0.00 
 329   11:00   0.48   77.6     8    3.3   272     4.5   981.0    0.00 
 329   11:10   0.49   77.6     8    3.9   269     5.5   981.0    0.00 
 329   11:20   0.50   77.9     8    4.2   264     6.5   980.7    0.00 
 329   11:30   0.50   77.4     8    3.1   265     5.3   980.7    0.00 
 329   11:40   0.50   78.7     7    3.1   261     6.0   980.4    0.00 
 329   11:50   0.50   79.0     7    2.1   269     5.0   980.4    0.00 
 329   12:00   0.50   78.9     7    1.8   252     4.1   980.0    0.00 
 329   12:10   0.50   77.8     7    1.4   277     3.7   980.0    0.00 
 329   12:20   0.49   79.5     7    2.0   289     6.2   979.7    0.00 
 329   12:30   0.48   80.3     6    2.4   291     5.8   979.3    0.00 
 329   12:40   0.48   79.8     6    2.4   242     5.8   979.3    0.00 
 329   12:50   0.46   79.5     6    2.0   348     5.2   979.0    0.00 
 329   13:00   0.44   81.6     6    3.2   277     9.3   979.0    0.00 
 329   13:10   0.44   82.4     6    4.8   268     8.1   979.0    0.00 
 329   13:20   0.43   81.6     6    4.2   265     8.6   979.0    0.00 
 329   13:30   0.42   82.6     6    4.4   275     8.4   978.7    0.00 
 329   13:40   0.40   82.8     6    3.9   277     7.9   978.7    0.00 
 329   13:50   0.38   82.8     7    3.5   278     6.6   978.7    0.00 
 329   14:00   0.37   81.7     7    3.3   276     6.6   978.7    0.00 
 329   14:10   0.35   81.8     7    3.8   281    10.8   978.7    0.00 
 329   14:20   0.33   81.4     7    2.7   282     5.4   978.7    0.00 
 329   14:30   0.31   81.5     7    1.6   292     5.4   978.7    0.00 
 329   14:40   0.29   81.1     8    1.7   289     5.3   978.3    0.00 
 329   14:50   0.27   81.3     7    2.6   286     6.3   978.3    0.00 
 329   15:00   0.24   80.3     8    1.6   302     4.7   978.3    0.00 
 329   15:10   0.22   79.6     9    1.3   302     5.3   978.3    0.00 
 329   15:20   0.20   77.8     9    2.1   293     7.4   978.3    0.00 
 329   15:30   0.17   76.3    10    3.4   272    10.1   978.0    0.00 
 329   15:40   0.11   74.4    10    2.0   310     8.5   978.0    0.00 
 329   15:50   0.03   72.5    11    1.9   314     7.2   977.7    0.00 
 329   16:00   0.02   70.9    11    1.9   305     7.5   977.7    0.00 
 329   16:10   0.01   69.8    11    2.7   295     9.6   977.7    0.00 
 329   16:20   0.01   69.0    12    3.4   285     9.9   977.7    0.00 
 329   16:30   0.01   68.6    13    3.9   284    10.2   978.0    0.00 
 329   16:40   0.01   67.7    14    1.9   297    10.9   978.0    0.00 
 329   16:50   0.01   67.0    14    1.8   296     7.0   978.3    0.00 
 329   17:00   0.00   66.6    15    3.4   285     9.7   978.3    0.00 
 329   17:10   0.00   65.9    16    1.7   295     6.6   978.3    0.00 
 329   17:20   0.00   65.0    16    1.1   269     4.9   978.7    0.00 
 329   17:30   0.00   64.7    15    2.6   230     4.7   978.7    0.00 
 329   17:40   0.00   64.4    15    1.6   238     2.9   978.7    0.00 
 329   17:50   0.00   63.9    15    2.1   214     4.3   979.0    0.00 
 329   18:00   0.00   64.3    15    1.3   237     2.9   979.0    0.00 

Return to Stunt Ranch Reserve graphs page.


Western Regional Climate Center,wrcc@dri.edu